Flight Track Log - Related Links

Times and Time Zones

All times are in EDT time to prevent confusion due to time zone crossing. See the UAL4234 flight status page for this flight to view local times or setup timezone preferences in your user account.

Time Position Orientation Groundspeed Altitude Reporting Facility
EDT Latitude Longitude Course Direction KTS MPH feet Rate Location/Type
Sat 04:43:00 PM 29.9639 -95.3433 97° East 149 171 600  Level Houston Center
Sat 04:44:11 PM 29.9408 -95.2892 116° Southeast 186 214 2,500 2,077 Climbing Houston Center
Sat 04:45:10 PM 29.9264 -95.2103 102° East 248 285 5,100 2,550 Climbing Houston Center
Sat 04:46:00 PM 29.9098 -94.7835 95° East  Level FlightAware Approximate
Sat 04:46:11 PM 29.9203 -95.1219 95° East 275 316 7,600  Level Houston Center
Sat 04:47:00 PM 29.8976 -94.6450 97° East  Level FlightAware Approximate
Sat 04:47:13 PM 29.9136 -95.0286 95° East 293 337 10,100  Level Houston Center
Sat 04:48:00 PM 29.8824 -94.5070 97° East  Level FlightAware Approximate
Sat 04:48:14 PM 29.9064 -94.9308 95° East 317 365 11,900  Level Houston Center
Sat 04:49:20 PM 29.8992 -94.8311 95° East 333 383 13,200 1,359 Climbing Houston Center
Sat 04:50:22 PM 29.8900 -94.6869 94° East 367 422 14,800 1,403 Climbing Houston Center
Sat 04:51:24 PM 29.8806 -94.5611 95° East 386 444 16,100 1,258 Climbing Houston Center
Sat 04:52:26 PM 29.8708 -94.4303 95° East 403 464 17,400 1,355 Climbing Houston Center
Sat 04:53:28 PM 29.8608 -94.2972 95° East 412 474 18,900 1,597 Climbing Houston Center
Sat 04:54:30 PM 29.8561 -94.1469 92° East 415 478 20,700 1,645 Climbing Houston Center
Sat 04:55:32 PM 29.8553 -94.0147 90° East 414 476 22,300 1,548 Climbing Houston Center
Sat 04:56:34 PM 29.8719 -93.8814 82° East 422 486 23,900 1,258 Climbing Houston Center
Sat 04:57:36 PM 29.8853 -93.7458 83° East 427 491 24,900 1,065 Climbing Houston Center
Sat 04:58:38 PM 29.8994 -93.6053 83° East 441 507 26,100 1,016 Climbing Houston Center
Sat 04:59:40 PM 29.9136 -93.4631 83° East 451 519 27,000 976 Climbing Houston Center
Sat 05:00:41 PM 29.9311 -93.2869 83° East 465 535 28,100 976 Climbing Houston Center
Sat 05:01:43 PM 29.9497 -93.1433 81° East 460 529 29,000 435 Climbing Houston Center
Sat 05:02:45 PM 29.9761 -92.9967 78° East 467 537 29,000 242 Level Houston Center
Sat 05:03:47 PM 30.0042 -92.8433 78° East 484 557 29,500 1,210 Climbing Houston Center
Sat 05:04:49 PM 30.0311 -92.6922 78° East 486 559 31,500 1,984 Climbing Houston Center
Sat 05:05:51 PM 30.0611 -92.5253 78° East 454 522 33,600 1,597 Climbing Houston Center
Sat 05:06:53 PM 30.0864 -92.3878 78° East 442 509 34,800 677 Climbing Houston Center
Sat 05:07:55 PM 30.1097 -92.2522 79° East 435 501 35,000 97 Climbing Houston Center
Sat 05:08:57 PM 30.1339 -92.1067 79° East 453 521 35,000  Level Houston Center
Sat 05:09:59 PM 30.1611 -91.9539 78° East 477 549 35,000  Level Houston Center
Sat 05:11:01 PM 30.1897 -91.7967 78° East 494 568 35,000  Level Houston Center
Sat 05:12:02 PM 30.2192 -91.6072 80° East 510 587 35,000 195 Level Houston Center
Sat 05:13:04 PM 30.2481 -91.4447 78° East 516 594 35,400 823 Climbing Houston Center
Sat 05:14:06 PM 30.2747 -91.2872 79° East 501 577 36,700 774 Climbing Houston Center
Sat 05:15:08 PM 30.2997 -91.1300 80° East 492 566 37,000 145 Climbing Houston Center
Sat 05:16:10 PM 30.3253 -90.9744 79° East 498 573 37,000  Level Houston Center
Sat 05:17:12 PM 30.3581 -90.7806 79° East 509 586 37,000  Level Houston Center
Sat 05:18:14 PM 30.3825 -90.6181 80° East 512 589 37,000  Level Houston Center
Sat 05:19:16 PM 30.4094 -90.4550 79° East 514 592 37,000  Level Houston Center
Sat 05:20:18 PM 30.4358 -90.2914 79° East 516 594 37,000  Level Houston Center
Sat 05:21:20 PM 30.4611 -90.1269 80° East 517 595 37,000  Level Houston Center
Sat 05:22:22 PM 30.4867 -89.9628 80° East 515 593 37,000  Level Houston Center
Sat 05:23:24 PM 30.5128 -89.7956 80° East 515 593 37,000  Level Houston Center
Sat 05:24:26 PM 30.5400 -89.6269 79° East 520 598 37,000  Level Houston Center
Sat 05:25:28 PM 30.5639 -89.4622 80° East 516 594 37,000  Level Houston Center
Sat 05:26:30 PM 30.5931 -89.2647 80° East 517 595 37,000  Level Houston Center
Sat 05:27:31 PM 30.6172 -89.0967 80° East 526 605 37,000  Level Houston Center
Sat 05:28:33 PM 30.6403 -88.9375 80° East 519 597 37,000  Level Houston Center
Sat 05:29:35 PM 30.6650 -88.7725 80° East 521 600 37,000  Level Houston Center
Sat 05:30:37 PM 30.6881 -88.6078 81° East 521 600 37,000  Level Houston Center
Sat 05:31:39 PM 30.7131 -88.4347 80° East 521 600 37,000  Level Houston Center
Sat 05:32:41 PM 30.7950 -88.2656 61° Northeast 503 579 37,000  Level Houston Center
Sat 05:33:43 PM 30.8867 -88.1431 49° Northeast 502 578 37,000  Level Houston Center
Sat 05:34:45 PM 30.9800 -88.0203 48° Northeast 506 582 37,000  Level Houston Center
Sat 05:35:47 PM 31.0722 -87.8978 49° Northeast 503 579 37,000  Level Houston Center
Sat 05:36:48 PM 31.1475 -87.7586 58° Northeast 510 587 37,000  Level Houston Center
Sat 05:37:50 PM 31.2181 -87.5992 63° Northeast 512 589 37,000  Level Houston Center
Sat 05:38:52 PM 31.2836 -87.4511 63° Northeast 515 593 37,000  Level Houston Center
Sat 05:39:54 PM 31.3478 -87.3036 63° Northeast 512 589 37,000  Level Houston Center
Sat 05:40:56 PM 31.4136 -87.1547 63° Northeast 515 593 37,000  Level Houston Center
Sat 05:41:58 PM 31.4908 -86.9756 63° Northeast 514 592 37,000  Level Houston Center
Sat 05:42:59 PM 31.5553 -86.8258 63° Northeast 516 594 37,000  Level Houston Center
Sat 05:44:01 PM 31.6211 -86.6711 63° Northeast 515 593 37,000  Level Houston Center
Sat 05:45:05 PM 31.6906 -86.5111 63° Northeast 504 580 37,000  Level Atlanta Center
Sat 05:46:05 PM 31.7542 -86.3614 63° Northeast 504 580 37,000  Level Atlanta Center
Sat 05:47:05 PM 31.8172 -86.2092 64° Northeast 504 580 37,000  Level Atlanta Center
Sat 05:48:05 PM 31.8825 -86.0592 63° Northeast 504 580 37,000  Level Atlanta Center
Sat 05:49:05 PM 31.9475 -85.9114 63° Northeast 504 580 37,000  Level Atlanta Center
Sat 05:50:05 PM 31.9972 -85.7922 64° Northeast 504 580 37,000  Level Atlanta Center
Sat 05:51:05 PM 32.0683 -85.6197 64° Northeast 510 587 37,000  Level Atlanta Center
Sat 05:52:05 PM 32.1308 -85.4664 64° Northeast 510 587 37,000  Level Atlanta Center
Sat 05:53:05 PM 32.1931 -85.3150 64° Northeast 510 587 37,000  Level Atlanta Center
Sat 05:54:05 PM 32.2592 -85.1614 63° Northeast 510 587 37,000  Level Atlanta Center
Sat 05:55:05 PM 32.3211 -85.0072 65° Northeast 510 587 37,000  Level Atlanta Center
Sat 05:56:05 PM 32.3869 -84.8506 64° Northeast 516 594 37,000  Level Atlanta Center
Sat 05:57:05 PM 32.4483 -84.7033 64° Northeast 510 587 37,000  Level Atlanta Center
Sat 05:58:05 PM 32.5117 -84.5414 65° Northeast 516 594 37,000  Level Atlanta Center
Sat 05:59:05 PM 32.5769 -84.3864 63° Northeast 521 600 37,000  Level Atlanta Center
Sat 06:00:05 PM 32.6397 -84.2286 65° Northeast 521 600 37,000  Level Atlanta Center
Sat 06:01:05 PM 32.7025 -84.0708 65° Northeast 521 600 37,000  Level Atlanta Center
Sat 06:02:05 PM 32.7672 -83.9128 64° Northeast 521 600 37,000 -350 Level Atlanta Center
Sat 06:03:05 PM 32.8294 -83.7519 65° Northeast 521 600 36,300 -850 Descending Atlanta Center
Sat 06:04:05 PM 32.8917 -83.5961 65° Northeast 521 600 35,300 -650 Descending Atlanta Center
Sat 06:05:05 PM 32.9536 -83.4372 65° Northeast 521 600 35,000 -150 Descending Atlanta Center
Sat 06:06:05 PM 33.0156 -83.2883 64° Northeast 515 593 35,000  Level Atlanta Center
Sat 06:07:05 PM 33.0750 -83.1267 66° East 515 593 35,000 -50 Level Atlanta Center
Sat 06:08:05 PM 33.1383 -82.9647 65° Northeast 529 609 34,900 -550 Descending Atlanta Center
Sat 06:09:05 PM 33.1972 -82.8075 66° East 524 603 33,900 -623 Descending Atlanta Center
Sat 06:11:08 PM 33.3286 -82.4625 65° Northeast 520 598 33,000 -295 Descending Jacksonville Center
Sat 06:12:08 PM 33.3906 -82.3006 65° Northeast 525 604 33,000  Level Jacksonville Center
Sat 06:13:08 PM 33.4522 -82.1383 65° Northeast 525 604 33,000  Level Jacksonville Center
Sat 06:14:08 PM 33.5139 -81.9783 65° Northeast 525 604 33,000  Level Jacksonville Center
Sat 06:15:08 PM 33.5878 -81.8406 57° Northeast 525 604 33,000  Level Jacksonville Center
Sat 06:16:08 PM 33.6825 -81.6994 51° Northeast 533 613 33,000  Level Jacksonville Center
Sat 06:17:08 PM 33.7792 -81.5608 50° Northeast 545 627 33,000  Level Jacksonville Center
Sat 06:18:08 PM 33.8778 -81.4167 50° Northeast 545 627 33,000  Level Jacksonville Center
Sat 06:19:08 PM 33.9764 -81.2747 50° Northeast 545 627 33,000  Level Jacksonville Center
Sat 06:20:08 PM 34.0744 -81.1300 51° Northeast 552 635 33,000  Level Jacksonville Center
Sat 06:21:08 PM 34.1706 -80.9875 51° Northeast 552 635 33,000  Level Jacksonville Center
Sat 06:22:08 PM 34.2683 -80.8397 51° Northeast 552 635 33,000 -1,250 Level Jacksonville Center
Sat 06:23:08 PM 34.3681 -80.6939 50° Northeast 545 627 30,500 -3,100 Descending Jacksonville Center
Sat 06:24:08 PM 34.4717 -80.5378 51° Northeast 551 634 26,800 -3,350 Descending Jacksonville Center
Sat 06:25:08 PM 34.5628 -80.4017 51° Northeast 545 627 23,800 -1,500 Descending Jacksonville Center
Sat 06:26:40 PM 34.6944 -80.1969 52° Northeast 492 566 23,000 -316 Descending Washington Center
Sat 06:27:40 PM 34.7786 -80.0675 52° Northeast 492 566 23,000  Level Washington Center
Sat 06:28:40 PM 34.8872 -79.9519 41° Northeast 507 583 23,000  Level Washington Center
Sat 06:29:40 PM 34.9872 -79.8408 42° Northeast 502 578 23,000  Level Washington Center
Sat 06:30:40 PM 35.0914 -79.7244 42° Northeast 491 565 23,000 -1,250 Level Washington Center
Sat 06:31:40 PM 35.1892 -79.6153 42° Northeast 480 552 20,500 -2,478 Descending Washington Center
Sat 06:32:12 PM 35.2425 -79.5747 32° Northeast 461 531 19,200 -2,700 Descending Washington Center
Sat 06:32:40 PM 35.2939 -79.5364 31° Northeast 465 535 17,800 -3,273 Descending Washington Center
Sat 06:33:18 PM 35.3644 -79.4914 27° Northeast 425 489 15,600 -3,200 Descending Washington Center
Sat 06:33:40 PM 35.3858 -79.4722 36° Northeast 434 499 14,600 -1,770 Descending Washington Center
Sat 06:34:19 PM 35.4583 -79.4222 29° Northeast 374 430 13,800 -1,100 Descending Washington Center
Sat 06:34:40 PM 35.4839 -79.4031 31° Northeast 382 440 13,500 -1,800 Descending Washington Center
Sat 06:35:19 PM 35.5275 -79.3514 44° Northeast 313 360 12,000 -2,100 Descending Washington Center
Sat 06:35:40 PM 35.5406 -79.3292 54° Northeast 333 383 11,400 -2,164 Descending Washington Center
Sat 06:36:20 PM 35.5800 -79.2669 52° Northeast 306 352 9,800 -2,400 Descending Washington Center
Sat 06:36:40 PM 35.5978 -79.2372 54° Northeast 310 357 9,000 -2,066 Descending Washington Center
Sat 06:37:21 PM 35.6286 -79.1850 54° Northeast 295 339 7,700 -2,100 Descending Washington Center
Sat 06:37:40 PM 35.6439 -79.1575 56° Northeast 299 344 6,900 -2,000 Descending Washington Center
Sat 06:38:21 PM 35.6725 -79.1128 52° Northeast 265 305 5,700 -1,500 Descending Washington Center
Sat 06:38:40 PM 35.6789 -79.1003 58° Northeast 273 314 5,400 -1,672 Descending Washington Center
Sat 06:39:22 PM 35.7164 -79.0381 53° Northeast 245 282 4,000 -1,600 Descending Washington Center
Sat 06:39:40 PM 35.7250 -79.0281 43° Northeast 255 293 3,800 -1,100 Descending Washington Center
Sat 06:40:22 PM 35.7558 -78.9731 55° Northeast 237 273 2,900 -1,000 Descending Washington Center
Sat 06:40:40 PM 35.7622 -78.9631 52° Northeast 243 280 2,800 -885 Descending Washington Center
Sat 06:41:23 PM 35.7906 -78.9158 54° Northeast 216 249 2,000 -1,116 Descending Washington Center

Login

Don't have an account? Register now (free) for customized features, flight alerts, and more!